Time;durP1;ratioP1;P1;durP2;ratioP2;P2;SDS_P1;SDS_P2;PMS_P1;PMS_P2;Temp;Humidity;BMP_temperature;BMP_pressure;BME280_temperature;BME280_humidity;BME280_pressure;Samples;Min_cycle;Max_cycle;Signal;HPM_P1;HPM_P2
2022/11/14 00:00:03;;;;;;;15.98;8.48;;;;;;;19.15;44.10;101924.72;5099289;28;20167;-70
2022/11/14 00:02:47;;;;;;;14.50;8.45;;;;;;;19.16;44.33;101921.09;5088048;28;20046;-70
2022/11/14 00:05:32;;;;;;;17.75;8.65;;;;;;;19.08;44.46;101903.38;5093947;28;20508;-70
2022/11/14 00:08:21;;;;;;;16.63;8.85;;;;;;;19.10;44.38;101911.97;5093932;28;20558;-70
2022/11/14 00:11:05;;;;;;;14.38;8.32;;;;;;;19.03;44.46;101895.09;5093801;28;20060;-70
2022/11/14 00:13:49;;;;;;;17.50;8.43;;;;;;;19.13;44.35;101909.03;5092174;28;20124;-70
2022/11/14 00:16:33;;;;;;;16.80;8.38;;;;;;;19.08;44.42;101900.75;5094727;28;20156;-70
2022/11/14 00:19:17;;;;;;;16.90;9.30;;;;;;;19.04;44.54;101895.91;5093004;28;20094;-70
2022/11/14 00:22:01;;;;;;;16.25;9.15;;;;;;;19.14;44.08;101892.22;5094995;28;20124;-70
2022/11/14 00:24:45;;;;;;;15.48;9.35;;;;;;;19.11;44.30;101886.41;5092275;28;20120;-70
2022/11/14 00:27:28;;;;;;;17.85;9.88;;;;;;;19.11;44.24;101876.69;5091535;28;20507;-70
2022/11/14 00:30:13;;;;;;;14.57;8.68;;;;;;;19.12;44.15;101873.06;5083497;28;20042;-70
2022/11/14 00:32:57;;;;;;;18.85;9.25;;;;;;;19.15;44.10;101871.94;5099927;28;20054;-70
2022/11/14 00:35:49;;;;;;;14.40;8.40;;;;;;;19.08;44.32;101874.34;5098649;28;20142;-70
2022/11/14 00:38:33;;;;;;;15.77;8.65;;;;;;;19.11;44.13;101863.47;5095142;28;20606;-70
2022/11/14 00:41:17;;;;;;;19.35;9.77;;;;;;;19.00;44.21;101850.47;5088216;28;20105;-70
2022/11/14 00:44:01;;;;;;;17.48;9.50;;;;;;;19.19;44.10;101865.34;5097363;28;20124;-70
2022/11/14 00:46:45;;;;;;;15.20;9.32;;;;;;;19.12;44.28;101859.03;5092463;28;20045;-70
2022/11/14 00:49:29;;;;;;;17.33;9.07;;;;;;;19.08;44.29;101863.78;5092941;28;20539;-70
2022/11/14 00:52:13;;;;;;;15.18;9.35;;;;;;;19.01;44.44;101860.88;5098047;28;20063;-71
2022/11/14 00:54:57;;;;;;;16.67;8.73;;;;;;;19.08;44.32;101853.22;5095877;28;20789;-70
2022/11/14 00:57:41;;;;;;;15.88;8.85;;;;;;;19.17;43.95;101846.19;5096045;28;20063;-70
2022/11/14 01:00:25;;;;;;;13.93;8.80;;;;;;;19.08;43.95;101845.31;5094198;28;20059;-70
2022/11/14 01:03:09;;;;;;;17.33;8.77;;;;;;;19.02;44.40;101838.78;5087887;28;20108;-70
2022/11/14 01:05:53;;;;;;;16.15;8.73;;;;;;;19.08;44.32;101833.91;5085458;28;20141;-70
2022/11/14 01:08:37;;;;;;;16.02;9.73;;;;;;;19.08;44.37;101840.03;5099665;28;20143;-70
2022/11/14 01:11:22;;;;;;;18.23;10.15;;;;;;;19.09;44.27;101836.41;5093499;28;20139;-70
2022/11/14 01:14:06;;;;;;;19.67;10.70;;;;;;;19.17;44.25;101830.34;5090345;28;20057;-70
2022/11/14 01:16:50;;;;;;;19.48;10.55;;;;;;;19.05;44.53;101828.94;5091160;28;20050;-70
2022/11/14 01:19:34;;;;;;;20.98;9.88;;;;;;;19.02;44.42;101827.41;5092370;28;20113;-70
2022/11/14 01:22:18;;;;;;;20.08;10.05;;;;;;;19.11;44.26;101831.81;5091171;28;20046;-70
2022/11/14 01:25:02;;;;;;;17.85;9.77;;;;;;;19.10;44.33;101835.41;5094857;28;20144;-70
2022/11/14 01:27:46;;;;;;;21.00;10.13;;;;;;;19.21;44.17;101818.50;5092185;28;20046;-70
2022/11/14 01:30:30;;;;;;;19.33;10.82;;;;;;;19.04;44.19;101795.59;5092970;28;20046;-70
2022/11/14 01:33:15;;;;;;;18.83;10.27;;;;;;;18.99;44.68;101806.59;5093982;28;20055;-70
2022/11/14 01:35:59;;;;;;;18.58;10.23;;;;;;;19.08;44.50;101800.44;5090921;28;20058;-70
2022/11/14 01:38:44;;;;;;;19.30;11.98;;;;;;;19.06;44.43;101796.28;5093221;28;20058;-70
2022/11/14 01:41:28;;;;;;;20.05;11.70;;;;;;;19.05;44.39;101789.34;5094528;28;20409;-70
2022/11/14 01:44:14;;;;;;;20.40;12.45;;;;;;;19.13;44.44;101792.03;5090350;28;20124;-70
2022/11/14 01:46:59;;;;;;;24.13;12.82;;;;;;;19.09;44.19;101793.34;5086585;28;20534;-70
2022/11/14 01:49:46;;;;;;;23.48;13.40;;;;;;;19.06;44.44;101794.47;5092529;28;20413;-70
2022/11/14 01:52:34;;;;;;;22.77;11.70;;;;;;;18.97;44.54;101779.53;5091601;28;20958;-70
2022/11/14 01:55:19;;;;;;;21.80;11.85;;;;;;;19.13;44.38;101777.03;5093921;28;20058;-70
2022/11/14 01:58:03;;;;;;;22.15;11.80;;;;;;;19.07;44.55;101768.91;5090905;28;20078;-70
2022/11/14 02:00:47;;;;;;;25.23;12.52;;;;;;;19.11;44.38;101773.72;5090022;28;20161;-70
2022/11/14 02:03:34;;;;;;;21.55;12.43;;;;;;;19.10;44.29;101769.41;5090471;28;20058;-70
2022/11/14 02:06:21;;;;;;;24.98;12.85;;;;;;;19.08;44.49;101752.91;5092267;28;20042;-70
2022/11/14 02:09:06;;;;;;;23.63;12.48;;;;;;;19.08;44.42;101749.44;5095316;28;20094;-70
2022/11/14 02:11:54;;;;;;;26.52;14.77;;;;;;;19.09;44.23;101741.34;5092091;28;20089;-70
2022/11/14 02:14:40;;;;;;;23.17;12.43;;;;;;;19.00;44.64;101734.34;5091666;28;20046;-70
2022/11/14 02:17:25;;;;;;;27.17;13.77;;;;;;;19.10;44.34;101742.19;5091856;28;20046;-70
2022/11/14 02:20:09;;;;;;;25.77;14.32;;;;;;;19.14;44.26;101731.16;5094555;28;20179;-70
2022/11/14 02:22:54;;;;;;;27.60;14.95;;;;;;;19.06;44.42;101736.41;5091775;28;20431;-70
2022/11/14 02:25:39;;;;;;;25.58;15.25;;;;;;;19.10;44.16;101727.19;5091439;28;20121;-70
2022/11/14 02:28:23;;;;;;;28.65;15.65;;;;;;;19.09;44.30;101720.25;5091277;28;20139;-70
2022/11/14 02:31:07;;;;;;;25.50;14.13;;;;;;;19.12;44.28;101724.38;5091663;28;20050;-70
2022/11/14 02:33:51;;;;;;;28.83;13.77;;;;;;;18.99;44.46;101720.31;5100569;28;20108;-70
2022/11/14 02:36:35;;;;;;;27.98;15.90;;;;;;;19.08;44.39;101715.13;5089097;28;20062;-70
2022/11/14 02:39:19;;;;;;;28.42;15.05;;;;;;;19.04;44.51;101716.41;5093414;28;20051;-70
2022/11/14 02:42:03;;;;;;;24.95;14.57;;;;;;;19.04;44.36;101704.03;5093749;28;20051;-70
2022/11/14 02:44:47;;;;;;;34.55;16.92;;;;;;;19.09;44.40;101696.47;5088949;28;20054;-70
2022/11/14 02:47:31;;;;;;;28.52;15.75;;;;;;;18.98;44.53;101707.28;5093656;28;20051;-70
2022/11/14 02:50:16;;;;;;;29.42;16.38;;;;;;;19.00;44.55;101708.78;5095138;28;20050;-70
2022/11/14 02:53:00;;;;;;;30.77;15.80;;;;;;;19.12;44.15;101701.44;5089880;28;20100;-70
2022/11/14 02:55:44;;;;;;;27.65;15.75;;;;;;;19.05;44.49;101697.78;5085355;28;20584;-70
2022/11/14 02:58:28;;;;;;;29.08;14.93;;;;;;;19.05;44.49;101694.31;5091597;28;20058;-70
2022/11/14 03:01:12;;;;;;;32.13;16.65;;;;;;;19.07;44.43;101685.25;5089885;28;20780;-70
2022/11/14 03:03:56;;;;;;;29.08;15.40;;;;;;;19.06;44.41;101688.88;5090477;28;20448;-70
2022/11/14 03:06:40;;;;;;;26.83;14.70;;;;;;;19.08;44.35;101684.25;5091131;28;20050;-70
2022/11/14 03:09:24;;;;;;;33.00;17.73;;;;;;;19.01;44.51;101681.38;5093204;28;20100;-70
2022/11/14 03:12:09;;;;;;;31.15;17.77;;;;;;;19.01;44.47;101678.75;5091037;28;20181;-70
2022/11/14 03:14:53;;;;;;;33.22;17.88;;;;;;;18.99;44.76;101670.16;5093844;28;21943;-70
2022/11/14 03:17:38;;;;;;;31.60;17.48;;;;;;;19.10;44.37;101674.38;5089704;28;20131;-70
2022/11/14 03:20:22;;;;;;;26.85;15.27;;;;;;;18.95;44.59;101665.34;5091955;28;20049;-70
2022/11/14 03:23:06;;;;;;;28.88;15.25;;;;;;;19.04;44.62;101668.91;5089998;28;20629;-70
2022/11/14 03:25:50;;;;;;;32.63;15.82;;;;;;;18.91;44.71;101651.63;5090358;28;20058;-70
2022/11/14 03:28:35;;;;;;;27.65;15.90;;;;;;;19.11;44.33;101662.00;5090438;28;20046;-70
2022/11/14 03:31:19;;;;;;;30.25;15.75;;;;;;;19.01;44.60;101660.28;5090220;28;20613;-70
2022/11/14 03:34:03;;;;;;;33.13;16.95;;;;;;;19.05;44.43;101662.63;5093930;28;20278;-70
2022/11/14 03:36:47;;;;;;;30.50;17.58;;;;;;;19.01;44.46;101667.38;5090280;28;20129;-70
2022/11/14 03:39:31;;;;;;;31.25;17.27;;;;;;;19.09;44.40;101661.34;5086705;28;20106;-70
2022/11/14 03:42:16;;;;;;;29.33;16.70;;;;;;;18.96;44.51;101659.91;5090726;28;20368;-70
2022/11/14 03:45:00;;;;;;;32.05;16.85;;;;;;;19.02;44.40;101664.56;5094784;28;20054;-70
2022/11/14 03:47:44;;;;;;;30.95;16.10;;;;;;;19.01;44.66;101659.44;5085764;28;20061;-70
2022/11/14 03:50:28;;;;;;;34.15;16.70;;;;;;;19.08;44.31;101665.78;5086454;28;20054;-70
2022/11/14 03:53:12;;;;;;;33.50;16.13;;;;;;;18.98;44.55;101657.94;5098683;28;20050;-70
2022/11/14 03:55:56;;;;;;;31.67;17.08;;;;;;;19.05;44.34;101652.91;5090834;28;20082;-70
2022/11/14 03:58:40;;;;;;;31.27;16.17;;;;;;;19.00;44.52;101647.22;5090778;28;20167;-70
2022/11/14 04:01:24;;;;;;;34.47;17.42;;;;;;;19.00;44.34;101644.59;5088842;28;20082;-70
2022/11/14 04:04:12;;;;;;;32.58;17.77;;;;;;;18.98;44.38;101644.75;5088548;28;20058;-70
2022/11/14 04:06:56;;;;;;;33.28;18.77;;;;;;;18.97;44.43;101639.63;5092586;28;20047;-70
2022/11/14 04:09:43;;;;;;;32.13;16.45;;;;;;;19.04;44.39;101645.13;5083802;28;20063;-70
2022/11/14 04:12:27;;;;;;;36.33;17.48;;;;;;;18.95;44.59;101639.78;5094334;28;20483;-70
2022/11/14 04:15:11;;;;;;;33.47;16.85;;;;;;;18.99;44.25;101641.13;5098744;28;20059;-70
2022/11/14 04:17:55;;;;;;;30.95;15.77;;;;;;;19.09;44.34;101630.47;5090974;28;20067;-70
2022/11/14 04:20:40;;;;;;;32.83;17.25;;;;;;;18.98;44.49;101636.84;5103167;28;20062;-70
2022/11/14 04:23:24;;;;;;;32.70;16.90;;;;;;;18.98;44.53;101626.28;5095898;28;20054;-70
2022/11/14 04:26:07;;;;;;;30.38;16.27;;;;;;;18.98;44.43;101622.81;5090544;28;20093;-70
2022/11/14 04:28:51;;;;;;;32.35;16.42;;;;;;;19.01;44.31;101625.13;5095130;28;20103;-70
2022/11/14 04:31:35;;;;;;;33.10;18.80;;;;;;;18.99;44.49;101624.47;5092263;28;20054;-70
2022/11/14 04:34:19;;;;;;;32.97;18.27;;;;;;;18.92;44.62;101604.97;5083631;28;20051;-70
2022/11/14 04:37:03;;;;;;;35.58;18.30;;;;;;;19.02;44.33;101605.66;5094164;28;20577;-70
2022/11/14 04:39:47;;;;;;;37.78;17.60;;;;;;;18.98;44.34;101606.97;5097536;28;20665;-70
2022/11/14 04:42:31;;;;;;;35.50;16.60;;;;;;;19.02;44.28;101603.84;5095454;28;20050;-70
2022/11/14 04:45:15;;;;;;;32.58;17.50;;;;;;;19.04;44.59;101592.34;5099167;28;20123;-70
2022/11/14 04:47:59;;;;;;;32.38;18.15;;;;;;;19.01;44.39;101593.47;5093487;28;20075;-70
2022/11/14 04:50:45;;;;;;;35.08;18.38;;;;;;;18.88;44.67;101591.25;5092074;28;20122;-70
2022/11/14 04:53:29;;;;;;;33.72;17.95;;;;;;;18.94;44.54;101603.00;5092583;28;20112;-70
2022/11/14 04:56:13;;;;;;;33.80;18.02;;;;;;;18.96;44.62;101601.84;5095967;28;20055;-70
2022/11/14 04:58:57;;;;;;;33.92;17.23;;;;;;;18.94;44.59;101603.00;5092274;28;20189;-70
2022/11/14 05:01:41;;;;;;;31.88;16.33;;;;;;;19.01;44.44;101601.38;5090978;28;20054;-70
2022/11/14 05:04:25;;;;;;;34.35;16.20;;;;;;;18.94;44.58;101603.81;5092634;28;20043;-70
2022/11/14 05:07:09;;;;;;;34.10;16.52;;;;;;;18.98;44.53;101596.41;5091894;28;20094;-70
2022/11/14 05:09:53;;;;;;;32.38;16.98;;;;;;;18.92;44.60;101592.59;5092493;28;20464;-70
2022/11/14 05:12:37;;;;;;;34.72;17.73;;;;;;;18.96;44.48;101591.28;5094046;28;20062;-70
2022/11/14 05:15:21;;;;;;;38.40;17.60;;;;;;;18.96;44.50;101583.38;5092072;28;20128;-70
2022/11/14 05:18:05;;;;;;;34.15;17.55;;;;;;;18.86;44.57;101574.75;5088239;28;20348;-70
2022/11/14 05:20:49;;;;;;;35.78;19.08;;;;;;;18.94;44.63;101574.78;5091186;28;20796;-70
2022/11/14 05:23:33;;;;;;;33.70;18.40;;;;;;;18.88;44.52;101571.94;5086737;28;20543;-71
2022/11/14 05:26:18;;;;;;;36.53;18.25;;;;;;;18.88;44.26;101575.41;5085447;28;20057;-70
2022/11/14 05:29:02;;;;;;;35.45;18.33;;;;;;;19.00;44.37;101571.50;5091455;28;20050;-70
2022/11/14 05:31:47;;;;;;;35.35;19.13;;;;;;;18.87;44.46;101571.13;5088272;28;20062;-70
2022/11/14 05:34:31;;;;;;;35.33;17.98;;;;;;;18.97;44.32;101576.28;5093522;28;20047;-70
2022/11/14 05:37:15;;;;;;;33.03;16.83;;;;;;;18.97;44.27;101566.56;5088714;28;20090;-70
2022/11/14 05:39:59;;;;;;;37.40;18.25;;;;;;;18.99;44.13;101567.22;5094488;28;20134;-70
2022/11/14 05:42:44;;;;;;;35.90;17.52;;;;;;;18.88;44.40;101558.75;5092851;28;20050;-70
2022/11/14 05:45:29;;;;;;;37.55;20.00;;;;;;;18.92;44.38;101568.00;5089378;28;20703;-70
2022/11/14 05:48:13;;;;;;;37.92;19.17;;;;;;;18.93;44.29;101562.56;5094837;28;20046;-70
2022/11/14 05:50:59;;;;;;;36.60;19.60;;;;;;;18.89;44.34;101560.41;5088284;28;20154;-70
2022/11/14 05:53:43;;;;;;;41.72;19.75;;;;;;;18.89;44.45;101561.25;5089372;28;20041;-70
2022/11/14 05:56:27;;;;;;;37.40;19.75;;;;;;;18.89;44.38;101549.84;5092926;28;20200;-70
2022/11/14 05:59:11;;;;;;;34.28;19.30;;;;;;;18.87;44.34;101544.72;5085727;28;20046;-70
2022/11/14 06:01:55;;;;;;;36.45;18.08;;;;;;;18.86;44.57;101544.91;5090016;28;20078;-70
2022/11/14 06:04:39;;;;;;;37.63;17.63;;;;;;;18.94;44.32;101540.47;5094505;28;20066;-70
2022/11/14 06:07:23;;;;;;;37.00;18.90;;;;;;;18.86;44.51;101542.25;5089372;28;20127;-70
2022/11/14 06:10:07;;;;;;;37.10;18.23;;;;;;;18.92;44.45;101538.97;5092082;28;20413;-70
2022/11/14 06:12:52;;;;;;;34.40;17.40;;;;;;;18.86;44.57;101540.44;5093087;28;20058;-70
2022/11/14 06:15:36;;;;;;;35.88;18.13;;;;;;;18.89;44.38;101550.69;5091038;28;21967;-70
2022/11/14 06:18:20;;;;;;;39.38;18.48;;;;;;;18.88;44.58;101545.56;5094345;28;20939;-70
2022/11/14 06:21:09;;;;;;;39.50;20.75;;;;;;;18.84;44.52;101552.94;5079990;28;20405;-70
2022/11/14 06:23:53;;;;;;;40.73;19.87;;;;;;;18.83;44.49;101561.00;5087690;28;20107;-70
2022/11/14 06:26:37;;;;;;;39.63;20.60;;;;;;;18.87;44.49;101562.38;5090081;28;20058;-70
2022/11/14 06:29:21;;;;;;;41.67;21.05;;;;;;;18.85;44.58;101561.69;5092243;28;20046;-70
2022/11/14 06:32:05;;;;;;;42.92;20.00;;;;;;;18.94;44.38;101564.22;5092970;28;20554;-71
2022/11/14 06:34:49;;;;;;;38.13;19.27;;;;;;;18.81;44.65;101557.72;5095746;28;20575;-70
2022/11/14 06:37:36;;;;;;;36.03;18.05;;;;;;;18.75;44.86;101561.81;5093834;28;20117;-70
2022/11/14 06:40:20;;;;;;;40.90;19.85;;;;;;;18.88;44.48;101558.75;5090978;28;20046;-70
2022/11/14 06:43:04;;;;;;;41.20;19.60;;;;;;;18.79;44.76;101563.13;5087065;28;20418;-70
2022/11/14 06:45:48;;;;;;;36.47;17.83;;;;;;;18.83;44.52;101563.66;5088435;28;20409;-70
2022/11/14 06:48:33;;;;;;;41.13;19.17;;;;;;;18.84;44.43;101560.84;5088551;28;20050;-70
2022/11/14 06:51:17;;;;;;;39.65;19.50;;;;;;;18.88;44.34;101561.41;5090444;28;20043;-70
2022/11/14 06:54:02;;;;;;;42.00;20.13;;;;;;;18.82;44.66;101557.53;5093021;28;20054;-70
2022/11/14 06:56:46;;;;;;;39.10;19.83;;;;;;;18.82;44.59;101564.63;5088587;28;20120;-70
2022/11/14 06:59:30;;;;;;;47.25;21.38;;;;;;;18.75;44.46;101543.34;5086759;28;20582;-70
2022/11/14 07:02:14;;;;;;;42.85;20.92;;;;;;;18.87;44.39;101567.66;5083642;28;20058;-70
2022/11/14 07:04:58;;;;;;;41.85;19.83;;;;;;;18.73;44.83;101578.78;5089357;28;20251;-70
2022/11/14 07:07:42;;;;;;;36.63;18.38;;;;;;;18.82;44.58;101568.09;5088097;28;20689;-70
2022/11/14 07:10:26;;;;;;;40.83;19.20;;;;;;;18.82;44.44;101570.75;5088676;28;20067;-70
2022/11/14 07:13:11;;;;;;;41.28;19.40;;;;;;;18.80;44.52;101567.44;5083005;28;20108;-69
2022/11/14 07:15:55;;;;;;;39.90;19.55;;;;;;;18.85;44.49;101575.72;5087985;28;20523;-69
2022/11/14 07:18:39;;;;;;;43.05;20.25;;;;;;;18.77;44.60;101562.47;5088797;28;20140;-70
2022/11/14 07:21:24;;;;;;;39.92;20.25;;;;;;;18.89;44.64;101573.59;5091282;28;20054;-70
2022/11/14 07:24:08;;;;;;;37.38;19.83;;;;;;;18.81;44.76;101561.16;5089184;28;20078;-70
2022/11/14 07:26:52;;;;;;;44.22;19.60;;;;;;;18.88;44.45;101559.59;5089080;28;20479;-70
2022/11/14 07:29:36;;;;;;;42.38;20.42;;;;;;;18.79;44.61;101557.88;5083940;28;20144;-70
2022/11/14 07:32:20;;;;;;;40.55;19.95;;;;;;;18.84;44.51;101560.03;5087785;28;20066;-70
2022/11/14 07:35:04;;;;;;;41.17;18.83;;;;;;;18.76;44.69;101560.00;5090687;28;20058;-70
2022/11/14 07:37:49;;;;;;;40.67;20.10;;;;;;;18.83;44.49;101558.38;5082957;28;20057;-70
2022/11/14 07:40:33;;;;;;;42.28;20.30;;;;;;;18.79;44.62;101560.50;5085143;28;20499;-70
2022/11/14 07:43:17;;;;;;;41.13;19.35;;;;;;;18.70;44.88;101556.16;5084869;28;20059;-70
2022/11/14 07:46:07;;;;;;;40.40;21.15;;;;;;;18.70;44.97;101559.63;5091878;28;20063;-69
2022/11/14 07:48:52;;;;;;;42.13;20.50;;;;;;;18.83;44.52;101555.72;5088231;28;20488;-70
2022/11/14 07:51:37;;;;;;;39.60;20.45;;;;;;;18.76;44.70;101560.00;5088087;28;20116;-70
2022/11/14 07:54:21;;;;;;;44.58;20.42;;;;;;;18.78;44.85;101558.03;5089161;28;20070;-70
2022/11/14 07:57:05;;;;;;;42.67;18.98;;;;;;;18.80;44.83;101561.31;5091718;28;20047;-70
2022/11/14 07:59:49;;;;;;;41.42;19.42;;;;;;;18.87;44.52;101563.22;5093629;28;20093;-70
2022/11/14 08:02:33;;;;;;;47.75;20.25;;;;;;;18.91;44.44;101561.91;5096337;28;20105;-69
2022/11/14 08:05:17;;;;;;;44.28;20.33;;;;;;;18.86;44.40;101560.72;5096514;28;20907;-68
2022/11/14 08:08:03;;;;;;;56.45;25.02;;;;;;;19.07;43.64;101563.81;5090124;28;20512;-70
2022/11/14 08:10:47;;;;;;;57.55;23.13;;;;;;;18.88;44.46;101558.75;5089963;28;20059;-70
2022/11/14 08:13:32;;;;;;;50.03;22.48;;;;;;;18.79;44.67;101554.41;5092246;28;20528;-70
2022/11/14 08:16:16;;;;;;;50.10;22.33;;;;;;;18.81;44.63;101550.63;5093894;28;20096;-70
2022/11/14 08:19:00;;;;;;;49.70;24.15;;;;;;;18.76;44.83;101544.97;5094762;28;20046;-70
2022/11/14 08:21:44;;;;;;;46.78;21.85;;;;;;;18.81;44.66;101545.34;5098776;28;20477;-69
2022/11/14 08:24:28;;;;;;;53.00;22.55;;;;;;;18.80;44.59;101545.50;5098574;28;20630;-70
2022/11/14 08:27:12;;;;;;;45.00;22.23;;;;;;;18.78;44.70;101537.75;5103742;28;20788;-69
2022/11/14 08:29:56;;;;;;;47.15;21.80;;;;;;;18.79;44.59;101535.94;5097045;28;20054;-69
2022/11/14 08:32:40;;;;;;;45.45;21.42;;;;;;;18.71;44.61;101528.81;5105220;28;20050;-69
2022/11/14 08:35:24;;;;;;;48.03;22.42;;;;;;;18.65;44.85;101529.41;5096866;28;20088;-70
2022/11/14 08:38:08;;;;;;;46.38;22.83;;;;;;;18.71;44.57;101534.91;5099202;28;20447;-69
2022/11/14 08:40:52;;;;;;;49.28;22.02;;;;;;;18.72;44.53;101525.19;5100162;28;20088;-69
2022/11/14 08:43:36;;;;;;;50.72;22.63;;;;;;;18.63;44.51;101521.66;5095183;28;20054;-69
2022/11/14 08:46:20;;;;;;;48.10;21.90;;;;;;;18.61;44.84;101523.59;5095558;28;20046;-69
2022/11/14 08:49:04;;;;;;;49.83;21.85;;;;;;;18.73;44.49;101515.44;5093266;28;20096;-70
2022/11/14 08:51:53;;;;;;;50.92;19.88;;;;;;;18.65;44.64;101526.75;5089090;28;20565;-69
2022/11/14 08:54:37;;;;;;;49.33;19.77;;;;;;;18.78;44.22;101519.28;5094861;28;20055;-69
2022/11/14 08:57:21;;;;;;;49.92;22.25;;;;;;;18.77;44.23;101516.78;5095096;28;20789;-69
2022/11/14 09:00:06;;;;;;;48.17;21.48;;;;;;;18.69;44.41;101530.78;5099121;28;20122;-69
2022/11/14 09:02:50;;;;;;;47.65;22.95;;;;;;;18.71;44.25;101531.44;5097002;28;20059;-69
2022/11/14 09:05:35;;;;;;;46.67;22.30;;;;;;;18.60;44.71;101529.00;5099290;28;20466;-69
2022/11/14 09:08:19;;;;;;;49.35;23.30;;;;;;;18.69;44.19;101517.56;5095205;28;20051;-69
2022/11/14 09:11:05;;;;;;;48.92;21.60;;;;;;;18.58;44.52;101523.06;5101619;28;20177;-70
2022/11/14 09:13:49;;;;;;;49.25;22.27;;;;;;;18.62;44.50;101529.69;5097455;28;20038;-69
2022/11/14 09:16:34;;;;;;;46.78;21.10;;;;;;;18.56;44.46;101525.03;5092523;28;20050;-69
2022/11/14 09:19:18;;;;;;;51.28;22.58;;;;;;;18.73;44.27;101518.09;5097634;28;20528;-69
2022/11/14 09:22:02;;;;;;;47.92;21.92;;;;;;;18.82;44.13;101509.22;5092896;28;20429;-67
2022/11/14 09:24:46;;;;;;;48.50;20.02;;;;;;;18.93;44.04;101511.59;5101453;28;20210;-69
2022/11/14 09:27:30;;;;;;;41.72;20.02;;;;;;;18.80;44.43;101506.75;5099111;28;20214;-70
2022/11/14 09:30:14;;;;;;;47.58;22.95;;;;;;;19.20;43.50;101508.75;5096135;28;20058;-77
2022/11/14 09:33:02;;;;;;;59.55;23.15;;;;;;;19.24;43.61;101511.91;5099266;28;20050;-72
2022/11/14 09:35:47;;;;;;;44.05;21.17;;;;;;;19.45;43.44;101512.31;5023786;28;20826;-68
2022/11/14 09:38:31;;;;;;;43.03;20.00;;;;;;;19.47;43.46;101501.59;5092783;28;20736;-67
2022/11/14 09:41:22;;;;;;;42.28;20.48;;;;;;;19.55;43.23;101502.47;5091447;28;20108;-67
2022/11/14 09:44:27;;;;;;;42.35;19.02;;;;;;;19.53;43.14;101496.47;5092470;28;20103;-67
2022/11/14 09:47:17;;;;;;;41.50;20.67;;;;;;;19.56;43.25;101506.75;5094840;28;20413;-67
2022/11/14 09:50:10;;;;;;;36.00;19.80;;;;;;;19.11;44.07;101500.97;5095415;28;20522;-67
2022/11/14 09:52:56;;;;;;;41.42;19.90;;;;;;;18.88;44.76;101506.81;5089989;28;20430;-67
2022/11/14 09:55:40;;;;;;;38.50;18.00;;;;;;;18.98;44.58;101499.59;5089690;28;20144;-67
2022/11/14 09:58:25;;;;;;;39.75;18.75;;;;;;;18.93;44.51;101490.50;5089164;28;21089;-67
2022/11/14 10:01:27;;;;;;;36.15;19.00;;;;;;;18.80;44.85;101498.00;5096910;28;20542;-67
2022/11/14 10:04:36;;;;;;;38.95;19.73;;;;;;;18.78;45.03;101497.34;5090074;28;20097;-67
2022/11/14 10:07:39;;;;;;;46.25;20.55;;;;;;;18.91;44.67;101493.28;5088753;28;20050;-67
2022/11/14 10:10:32;;;;;;;43.50;20.33;;;;;;;18.91;44.83;101487.19;5090425;28;20058;-67
2022/11/14 10:13:34;;;;;;;38.20;19.45;;;;;;;18.86;44.83;101476.28;5095512;28;20050;-67
2022/11/14 10:16:33;;;;;;;40.03;18.65;;;;;;;18.84;44.89;101486.13;5089315;28;21802;-67
2022/11/14 10:19:32;;;;;;;36.08;18.38;;;;;;;18.85;44.93;101474.59;5094112;28;20059;-67
2022/11/14 10:23:01;;;;;;;35.80;19.55;;;;;;;19.00;44.56;101475.66;5090395;28;20565;-67
2022/11/14 10:25:58;;;;;;;37.45;19.77;;;;;;;18.82;44.88;101467.84;5034589;28;20118;-67
2022/11/14 10:28:51;;;;;;;37.40;19.08;;;;;;;18.91;44.83;101466.91;5095199;28;20046;-67
2022/11/14 10:32:15;;;;;;;38.10;18.58;;;;;;;18.93;44.68;101462.28;5093738;28;20532;-66
2022/11/14 10:35:12;;;;;;;36.90;17.73;;;;;;;18.88;44.67;101451.38;5086765;28;20598;-67
2022/11/14 10:38:05;;;;;;;34.85;16.65;;;;;;;18.86;44.74;101455.19;5090914;28;20066;-67
2022/11/14 10:40:53;;;;;;;36.42;18.08;;;;;;;18.80;44.67;101448.69;5096158;28;20154;-67
2022/11/14 10:43:46;;;;;;;35.60;17.83;;;;;;;18.94;44.53;101453.38;5091431;28;20051;-67
2022/11/14 10:46:49;;;;;;;34.72;18.02;;;;;;;18.87;44.86;101454.19;5095471;28;20046;-67
2022/11/14 10:49:35;;;;;;;37.33;19.05;;;;;;;18.84;44.79;101452.66;5089999;28;20050;-67
2022/11/14 10:52:25;;;;;;;36.17;19.30;;;;;;;18.85;44.74;101443.78;5091866;28;20520;-67
2022/11/14 10:55:13;;;;;;;;;;;;;;;18.85;44.78;101438.50;5092885;28;20420;-67
2022/11/14 10:57:57;;;;;;;38.08;19.02;;;;;;;18.87;44.77;101435.72;5079384;28;19927;-67
2022/11/14 11:00:41;;;;;;;35.17;17.85;;;;;;;18.84;44.81;101430.72;5086635;28;20182;-68
2022/11/14 11:03:42;;;;;;;35.67;18.00;;;;;;;18.86;44.75;101434.88;5083000;28;20122;-68
2022/11/14 11:06:28;;;;;;;35.33;17.92;;;;;;;18.84;44.96;101433.38;5085494;28;20530;-67
2022/11/14 11:12:20;;;;;;;36.17;17.30;;;;;;;18.90;44.74;101415.09;5081134;28;20470;-68
2022/11/14 11:15:18;;;;;;;34.03;17.13;;;;;;;18.82;44.83;101404.50;5080456;28;20043;-67
2022/11/14 11:18:05;;;;;;;31.33;16.38;;;;;;;18.85;44.87;101398.06;5087667;28;20051;-67
2022/11/14 11:21:08;;;;;;;34.17;16.52;;;;;;;18.85;44.96;101395.44;5086090;28;22097;-67
2022/11/14 11:23:54;;;;;;;33.45;16.98;;;;;;;18.89;44.91;101386.25;5087692;28;20047;-67
2022/11/14 11:26:39;;;;;;;31.35;16.63;;;;;;;18.90;44.74;101370.25;5085200;28;20509;-67
2022/11/14 11:29:23;;;;;;;33.63;17.02;;;;;;;18.99;44.63;101373.72;5085543;28;20046;-67
2022/11/14 11:32:08;;;;;;;32.42;16.13;;;;;;;18.88;44.76;101369.59;5085732;28;20051;-67
2022/11/14 11:34:53;;;;;;;35.42;16.83;;;;;;;19.00;44.80;101365.63;5084684;28;20796;-67
2022/11/14 11:37:45;;;;;;;30.88;15.93;;;;;;;18.97;44.53;101363.31;5077596;28;20456;-67
2022/11/14 11:40:29;;;;;;;31.80;16.75;;;;;;;18.93;44.81;101367.28;5086639;28;20556;-68
2022/11/14 11:43:38;;;;;;;33.45;18.08;;;;;;;19.00;44.67;101355.06;5091467;28;20513;-73
2022/11/14 11:46:46;;;;;;;34.33;17.00;;;;;;;18.99;44.73;101357.88;5089232;28;20194;-69
2022/11/14 11:49:42;;;;;;;32.88;17.42;;;;;;;18.95;44.86;101353.91;5086371;28;20162;-70
2022/11/14 11:52:55;;;;;;;33.78;17.95;;;;;;;19.14;43.98;101336.97;5086516;28;20397;-71
2022/11/14 11:55:53;;;;;;;38.92;19.85;;;;;;;18.94;44.59;101333.78;5082008;28;20195;-68
2022/11/14 11:58:49;;;;;;;34.53;16.90;;;;;;;18.93;44.74;101329.50;5084301;28;20528;-68
2022/11/14 12:01:33;;;;;;;34.40;16.45;;;;;;;19.00;44.62;101327.84;5087539;28;20046;-68
2022/11/14 12:04:17;;;;;;;34.42;16.65;;;;;;;19.01;44.52;101330.34;5085937;28;20142;-68
2022/11/14 12:07:15;;;;;;;29.67;15.10;;;;;;;18.93;44.84;101322.41;5085798;28;20051;-68
2022/11/14 12:10:06;;;;;;;34.55;17.00;;;;;;;18.95;44.76;101323.06;5045396;28;1083306;-68
2022/11/14 12:13:03;;;;;;;34.35;17.05;;;;;;;18.91;44.81;101332.31;5090316;28;20086;-68
2022/11/14 12:15:50;;;;;;;30.73;15.95;;;;;;;18.99;44.86;101326.22;5087158;28;20116;-68
2022/11/14 12:19:21;;;;;;;32.83;15.60;;;;;;;19.03;44.50;101319.66;5085633;28;20737;-68
2022/11/14 12:22:36;;;;;;;34.00;17.15;;;;;;;19.02;44.62;101315.31;5030855;28;20146;-68
2022/11/14 12:25:53;;;;;;;31.30;17.40;;;;;;;19.04;44.52;101316.00;5089286;28;20431;-68
2022/11/14 12:29:09;;;;;;;33.30;16.88;;;;;;;18.99;44.61;101316.47;5090211;28;20050;-69
2022/11/14 12:32:02;;;;;;;30.92;17.02;;;;;;;19.00;44.67;101319.94;5088745;28;20104;-68
2022/11/14 12:34:48;;;;;;;31.77;15.95;;;;;;;18.99;44.75;101316.47;5090602;28;20109;-68
2022/11/14 12:37:42;;;;;;;32.22;15.88;;;;;;;18.97;44.72;101320.28;5088298;28;20112;-68
2022/11/14 12:40:31;;;;;;;29.98;15.85;;;;;;;19.03;44.46;101319.66;5090712;28;20135;-67